Washington, DC (20539)

11:28 PM EDT on September 14, 2014 (GMT -0400)
Logan Circle | Change Station
CLOSE
Current Station
Personal Weather Station
Location: Washington, DC
Elevation: 108 ft
Nearby Weather Stations

Elev 108 ft 38.91 °N, 77.03 °W | Updated 17 seconds ago

Clear
Clear
58.3 °F
Feels Like 58.3 °F
N
0.0
Wind Variable Wind from NE
Gusts 1.1 mph

Today
High -- | Low -- °F
--% Chance of Precip.
Yesterday
High -- | Low -- °F
Precip. -- in
6:48 AM 7:18 PM
Waning Gibbous, 59% visible
Pressure 30.23 in
Visibility 10.0 miles
Clouds Few 25000 ft
Dew Point 49 °F
Humidity 71%
Rainfall 0.00 in
Snow Depth Not available.
UV 0 out of 12
Pollen 5.80 out of 12
Air Quality Not available.
Flu Activity Not available.
METAR KDCA 150252Z 00000KT 10SM FEW250 18/10 A3023 RMK AO2 SLP237 T01780100 51004

More Conditions Fewer Conditions

Pressure 30.23 in
Visibility 10.0 miles
Clouds Few 25000 ft
Dew Point 49 °F
Humidity 71%
Rainfall 0.00 in
Snow Depth Not available.
UV 0 out of 12
Pollen 5.80 out of 12
Air Quality Not available.
Flu Activity Not available.
METAR KDCA 150252Z 00000KT 10SM FEW250 18/10 A3023 RMK AO2 SLP237 T01780100 51004

More Conditions Fewer Conditions

10-Day Weather Forecast

Almanac

Astronomy

Sep. 14, 2014 Rise Set
Actual Time 6:48 AM EDT 7:18 PM EDT
Civil Twilight 6:21 AM EDT 7:44 PM EDT
Nautical Twilight 5:50 AM EDT 8:16 PM EDT
Astronomical Twilight 5:17 AM EDT 8:48 PM EDT
Moon 11:12 PM EDT (9/14) 12:49 PM EDT (9/14)
Length of Visible Light 13h 22m
Length of Day
12h 29m
Tomorrow will be 2m 30s shorter.
Waning Gibbous, 59% of the Moon is Illuminated
Today
Waning Gibbous
Sep 15
Last Quarter
Sep 24
New
Oct 1
First Quarter
Oct 8
Full

Today's Extremes

State Highs State Lows

Community

WunderPhotos

Upload Photos

1,753,390 photos uploaded!

WunderBlogs® & News

Nearby

Snow Depth

Station Depth Elevation
No new snow has been reported.

Earthquake Activity

City Distance Mag. Time & Date
No recent earthquake activity has been reported nearby.
Minimum magnitude displayed is 2.5.

Coastal Water Temperatures

Place Temperature
Washington, DC 75.9 °F
Baltimore, MD 78.1 °F
Solomons Island, MD 77.0 °F

Nearby Weather Stations